Time;durP1;ratioP1;P1;durP2;ratioP2;P2;SDS_P1;SDS_P2;PMS_P1;PMS_P2;Temp;Humidity;BMP_temperature;BMP_pressure;BME280_temperature;BME280_humidity;BME280_pressure;Samples;Min_cycle;Max_cycle;Signal;HPM_P1;HPM_P2
2023/01/19 00:00:56;;;;;;;7.73;4.13;;;;;;;;;;5066522;28;20524;-81
2023/01/19 00:03:21;;;;;;;6.50;4.80;;;;;;;;;;5061584;28;20177;-81
2023/01/19 00:05:46;;;;;;;7.47;4.70;;;;;;;;;;5065578;28;20189;-81
2023/01/19 00:08:15;;;;;;;8.07;5.93;;;;;;;;;;5065148;28;20201;-81
2023/01/19 00:10:41;;;;;;;8.33;5.13;;;;;;;;;;5071210;28;20180;-81
2023/01/19 00:13:06;;;;;;;8.07;4.10;;;;;;;;;;5066341;28;20181;-81
2023/01/19 00:15:31;;;;;;;9.93;5.40;;;;;;;;;;5073966;28;20173;-81
2023/01/19 00:17:56;;;;;;;6.67;4.47;;;;;;;;;;5060760;28;20182;-81
2023/01/19 00:20:22;;;;;;;9.37;4.37;;;;;;;;;;5067449;28;20180;-81
2023/01/19 00:22:49;;;;;;;5.63;4.60;;;;;;;;;;5066502;28;20177;-82
2023/01/19 00:25:15;;;;;;;6.47;4.30;;;;;;;;;;5066805;28;20235;-81
2023/01/19 00:27:40;;;;;;;6.17;4.17;;;;;;;;;;5068941;28;20182;-81
2023/01/19 00:30:06;;;;;;;8.33;3.87;;;;;;;;;;5060227;28;20224;-81
2023/01/19 00:32:31;;;;;;;5.90;4.00;;;;;;;;;;5069963;28;20178;-81
2023/01/19 00:34:56;;;;;;;8.37;4.63;;;;;;;;;;5067390;28;20189;-80
2023/01/19 00:37:21;;;;;;;6.57;4.70;;;;;;;;;;5069321;28;20230;-81
2023/01/19 00:39:47;;;;;;;6.47;4.30;;;;;;;;;;5067566;28;20189;-82
2023/01/19 00:44:56;;;;;;;6.37;3.83;;;;;;;;;;5062568;28;20212;-81
2023/01/19 00:47:21;;;;;;;5.93;3.70;;;;;;;;;;5066934;28;20173;-81
2023/01/19 00:49:46;;;;;;;5.20;3.60;;;;;;;;;;5064225;28;20198;-81
2023/01/19 00:52:11;;;;;;;5.70;3.63;;;;;;;;;;5058731;28;20181;-81
2023/01/19 00:54:37;;;;;;;5.53;3.87;;;;;;;;;;5063131;28;20177;-81
2023/01/19 00:57:02;;;;;;;5.20;4.10;;;;;;;;;;5070758;28;20176;-81
2023/01/19 00:59:27;;;;;;;6.87;3.80;;;;;;;;;;5065173;28;20181;-82
2023/01/19 01:01:52;;;;;;;4.93;4.03;;;;;;;;;;5064163;28;20209;-81
2023/01/19 01:04:18;;;;;;;5.17;3.90;;;;;;;;;;5071712;28;20214;-81
2023/01/19 01:06:43;;;;;;;4.17;3.20;;;;;;;;;;5061168;28;20207;-81
2023/01/19 01:09:10;;;;;;;4.47;3.50;;;;;;;;;;5079342;28;20220;-81
2023/01/19 01:11:42;;;;;;;5.27;3.57;;;;;;;;;;5062172;28;20268;-81
2023/01/19 01:14:08;;;;;;;4.30;3.13;;;;;;;;;;5072771;28;20189;-81
2023/01/19 01:16:33;;;;;;;5.40;3.83;;;;;;;;;;5065023;28;20448;-81
2023/01/19 01:18:58;;;;;;;5.53;4.10;;;;;;;;;;5062255;28;20228;-81
2023/01/19 01:21:23;;;;;;;5.20;3.77;;;;;;;;;;5072107;28;20212;-81
2023/01/19 01:23:49;;;;;;;4.93;3.40;;;;;;;;;;5067878;28;20190;-81
2023/01/19 01:26:14;;;;;;;5.83;3.97;;;;;;;;;;5083565;28;20186;-81
2023/01/19 01:28:39;;;;;;;6.63;4.23;;;;;;;;;;5071392;28;20208;-82
2023/01/19 01:31:05;;;;;;;5.10;3.27;;;;;;;;;;5064627;28;20276;-81
2023/01/19 01:33:30;;;;;;;5.13;3.17;;;;;;;;;;5081442;28;20175;-81
2023/01/19 01:35:55;;;;;;;5.90;3.23;;;;;;;;;;5084051;28;20272;-81
2023/01/19 01:38:26;;;;;;;5.43;3.80;;;;;;;;;;5065715;28;20255;-81
2023/01/19 01:40:52;;;;;;;3.97;2.97;;;;;;;;;;5067759;28;20217;-81
2023/01/19 01:43:19;;;;;;;6.00;3.40;;;;;;;;;;5063759;28;20449;-82
2023/01/19 01:45:45;;;;;;;5.67;3.77;;;;;;;;;;5071253;28;20225;-81
2023/01/19 01:48:14;;;;;;;3.67;2.80;;;;;;;;;;5057099;28;20303;-81
2023/01/19 01:51:22;;;;;;;6.60;3.53;;;;;;;;;;5063428;28;20195;-81
2023/01/19 01:53:31;;;;;;;5.23;3.13;;;;;;;;;;5074296;28;20260;-82
2023/01/19 01:55:57;;;;;;;3.87;3.20;;;;;;;;;;5073047;28;20182;-81
2023/01/19 01:58:22;;;;;;;4.43;3.23;;;;;;;;;;5063928;28;20215;-81
2023/01/19 02:03:31;;;;;;;5.30;3.20;;;;;;;;;;5069345;28;20203;-82
2023/01/19 02:05:59;;;;;;;4.33;3.77;;;;;;;;;;5066145;28;20276;-81
2023/01/19 02:13:59;;;;;;;5.30;3.17;;;;;;;;;;5073912;28;20181;-81
2023/01/19 02:16:24;;;;;;;4.37;3.20;;;;;;;;;;5059623;28;20173;-81
2023/01/19 02:18:49;;;;;;;8.43;3.17;;;;;;;;;;5067219;28;20173;-82
2023/01/19 02:21:20;;;;;;;45.03;21.03;;;;;;;;;;5060797;28;20201;-81
2023/01/19 02:23:47;;;;;;;5.20;3.07;;;;;;;;;;5072551;28;20169;-81
2023/01/19 02:26:15;;;;;;;7.33;2.90;;;;;;;;;;5064627;28;20308;-81
2023/01/19 02:28:44;;;;;;;5.23;2.63;;;;;;;;;;5055535;28;20221;-81
2023/01/19 02:31:09;;;;;;;4.60;3.00;;;;;;;;;;5075879;28;20188;-81
2023/01/19 02:33:34;;;;;;;3.43;2.80;;;;;;;;;;5051499;28;20197;-81
2023/01/19 02:36:01;;;;;;;6.00;4.20;;;;;;;;;;5060063;28;20217;-81
2023/01/19 02:38:27;;;;;;;4.23;3.20;;;;;;;;;;5070388;28;20229;-82
2023/01/19 02:40:54;;;;;;;3.90;2.90;;;;;;;;;;5077097;28;20229;-81
2023/01/19 02:43:20;;;;;;;4.47;3.00;;;;;;;;;;5068351;28;20189;-81
2023/01/19 02:45:47;;;;;;;5.47;3.23;;;;;;;;;;5074248;28;20182;-81
2023/01/19 02:48:13;;;;;;;5.13;3.67;;;;;;;;;;5063064;28;20372;-81
2023/01/19 02:50:44;;;;;;;3.60;2.87;;;;;;;;;;5064370;28;20597;-81
2023/01/19 02:53:19;;;;;;;3.60;2.50;;;;;;;;;;5067524;28;20176;-81
2023/01/19 02:55:47;;;;;;;5.10;3.33;;;;;;;;;;5065500;28;20201;-81
2023/01/19 02:58:19;;;;;;;2.93;2.70;;;;;;;;;;5069216;28;20186;-81
2023/01/19 03:00:54;;;;;;;4.37;3.80;;;;;;;;;;5078367;28;20281;-81
2023/01/19 03:03:29;;;;;;;4.33;2.50;;;;;;;;;;5074186;28;20216;-81
2023/01/19 03:06:00;;;;;;;3.07;2.63;;;;;;;;;;5069834;28;20200;-81
2023/01/19 03:08:45;;;;;;;3.00;2.60;;;;;;;;;;5071752;28;20247;-81
2023/01/19 03:11:12;;;;;;;3.67;3.00;;;;;;;;;;5076916;28;20181;-81
2023/01/19 03:13:43;;;;;;;4.00;3.27;;;;;;;;;;5071921;28;20172;-81
2023/01/19 03:16:08;;;;;;;3.30;2.60;;;;;;;;;;5061873;28;20174;-82
2023/01/19 03:18:35;;;;;;;4.53;3.10;;;;;;;;;;5073801;28;20246;-81
2023/01/19 03:21:03;;;;;;;6.37;3.47;;;;;;;;;;5068697;28;20180;-81
2023/01/19 03:23:30;;;;;;;4.83;3.00;;;;;;;;;;5056255;28;20173;-81
2023/01/19 03:25:57;;;;;;;2.60;2.40;;;;;;;;;;5064071;28;20231;-81
2023/01/19 03:28:23;;;;;;;3.00;2.30;;;;;;;;;;5065501;28;20193;-81
2023/01/19 03:30:51;;;;;;;4.77;3.20;;;;;;;;;;5069637;28;20228;-81
2023/01/19 03:33:31;;;;;;;3.00;2.67;;;;;;;;;;5062089;28;20455;-81
2023/01/19 03:36:02;;;;;;;3.77;2.73;;;;;;;;;;5060862;28;20198;-81
2023/01/19 03:38:28;;;;;;;3.60;2.60;;;;;;;;;;5063438;28;20256;-81
2023/01/19 03:40:57;;;;;;;7.30;2.60;;;;;;;;;;5074977;28;20218;-81
2023/01/19 03:43:23;;;;;;;3.97;2.90;;;;;;;;;;5080746;28;20220;-80
2023/01/19 03:45:49;;;;;;;3.70;2.70;;;;;;;;;;5072868;28;20263;-80
2023/01/19 03:48:15;;;;;;;2.77;2.40;;;;;;;;;;5068124;28;20265;-81
2023/01/19 03:50:40;;;;;;;3.43;2.87;;;;;;;;;;5075691;28;20205;-80
2023/01/19 03:53:06;;;;;;;4.87;3.10;;;;;;;;;;5069779;28;20261;-81
2023/01/19 03:55:33;;;;;;;6.73;3.13;;;;;;;;;;5069953;28;20177;-80
2023/01/19 03:57:59;;;;;;;4.33;3.30;;;;;;;;;;5066522;28;20174;-80
2023/01/19 04:00:24;;;;;;;2.87;2.50;;;;;;;;;;5064102;28;20185;-80
2023/01/19 04:02:50;;;;;;;2.37;2.17;;;;;;;;;;5066981;28;20181;-80
2023/01/19 04:05:15;;;;;;;4.57;2.90;;;;;;;;;;5069026;28;20204;-80
2023/01/19 04:07:40;;;;;;;4.83;3.50;;;;;;;;;;5074596;28;20170;-80
2023/01/19 04:10:06;;;;;;;13.70;9.10;;;;;;;;;;5064285;28;20211;-81
2023/01/19 04:12:31;;;;;;;46.73;25.17;;;;;;;;;;5067212;28;20181;-81
2023/01/19 04:14:56;;;;;;;30.67;18.23;;;;;;;;;;5067287;28;20349;-81
2023/01/19 04:17:22;;;;;;;18.40;10.73;;;;;;;;;;5072646;28;20199;-82
2023/01/19 04:19:47;;;;;;;24.23;14.53;;;;;;;;;;5065667;28;20181;-81
2023/01/19 04:22:12;;;;;;;38.00;29.60;;;;;;;;;;5062725;28;20185;-82
2023/01/19 04:24:37;;;;;;;17.73;13.47;;;;;;;;;;5072617;28;20200;-81
2023/01/19 04:27:02;;;;;;;7.07;5.77;;;;;;;;;;5062645;28;20189;-81
2023/01/19 04:29:28;;;;;;;8.23;5.70;;;;;;;;;;5062184;28;20212;-81
2023/01/19 04:31:53;;;;;;;14.27;9.87;;;;;;;;;;5076598;28;20243;-81
2023/01/19 04:34:18;;;;;;;19.97;11.00;;;;;;;;;;5073950;28;20176;-81
2023/01/19 04:36:44;;;;;;;21.23;13.63;;;;;;;;;;5074835;28;20198;-81
2023/01/19 04:39:10;;;;;;;28.50;14.30;;;;;;;;;;5069155;28;20541;-81
2023/01/19 04:41:35;;;;;;;16.73;10.00;;;;;;;;;;5067744;28;20185;-81
2023/01/19 04:44:01;;;;;;;9.13;6.40;;;;;;;;;;5064891;28;20184;-81
2023/01/19 04:46:26;;;;;;;3.87;3.40;;;;;;;;;;5063673;28;20192;-81
2023/01/19 04:48:51;;;;;;;4.13;3.03;;;;;;;;;;5065499;28;20208;-82
2023/01/19 04:51:16;;;;;;;10.67;5.53;;;;;;;;;;5069600;28;20174;-82
2023/01/19 04:53:41;;;;;;;6.50;4.87;;;;;;;;;;5073716;28;20173;-81
2023/01/19 04:56:07;;;;;;;5.10;3.30;;;;;;;;;;5069624;28;20235;-82
2023/01/19 04:58:32;;;;;;;5.53;4.23;;;;;;;;;;5076572;28;20244;-82
2023/01/19 05:00:57;;;;;;;17.47;9.63;;;;;;;;;;5066791;28;20182;-82
2023/01/19 05:03:22;;;;;;;6.57;3.50;;;;;;;;;;5083278;28;20273;-81
2023/01/19 05:05:47;;;;;;;3.53;2.90;;;;;;;;;;5075220;28;20177;-82
2023/01/19 05:08:13;;;;;;;4.43;3.50;;;;;;;;;;5067384;28;20212;-82
2023/01/19 05:10:38;;;;;;;3.80;3.03;;;;;;;;;;5079000;28;20177;-82
2023/01/19 05:13:04;;;;;;;5.40;4.23;;;;;;;;;;5069935;28;20250;-83
2023/01/19 05:15:29;;;;;;;6.77;3.50;;;;;;;;;;5069853;28;20185;-82
2023/01/19 05:17:56;;;;;;;6.73;4.37;;;;;;;;;;5068200;28;20314;-82
2023/01/19 05:20:22;;;;;;;8.30;4.97;;;;;;;;;;5069907;28;20178;-82
2023/01/19 05:22:48;;;;;;;11.53;7.00;;;;;;;;;;5072030;28;20173;-82
2023/01/19 05:25:13;;;;;;;13.63;8.00;;;;;;;;;;5068080;28;20181;-83
2023/01/19 05:27:38;;;;;;;9.87;5.97;;;;;;;;;;5063179;28;20178;-82
2023/01/19 05:30:04;;;;;;;8.47;5.53;;;;;;;;;;5076156;28;20200;-82
2023/01/19 05:32:29;;;;;;;9.00;5.43;;;;;;;;;;5069733;28;20180;-82
2023/01/19 05:34:54;;;;;;;10.70;6.47;;;;;;;;;;5068679;28;20181;-83
2023/01/19 05:37:20;;;;;;;8.77;4.83;;;;;;;;;;5064028;28;20232;-83
2023/01/19 05:39:45;;;;;;;7.90;5.87;;;;;;;;;;5080820;28;20233;-82
2023/01/19 05:42:10;;;;;;;8.17;5.93;;;;;;;;;;5068045;28;20247;-82
2023/01/19 05:44:35;;;;;;;8.20;5.13;;;;;;;;;;5084777;28;20209;-82
2023/01/19 05:47:01;;;;;;;6.13;5.00;;;;;;;;;;5069572;28;20193;-83
2023/01/19 05:49:26;;;;;;;7.10;5.57;;;;;;;;;;5066655;28;20231;-82
2023/01/19 05:51:51;;;;;;;11.60;5.83;;;;;;;;;;5069632;28;20177;-81
2023/01/19 05:54:16;;;;;;;6.80;3.63;;;;;;;;;;5063712;28;20223;-82
2023/01/19 05:56:42;;;;;;;14.60;7.60;;;;;;;;;;5077442;28;20177;-83
2023/01/19 05:59:07;;;;;;;9.90;4.73;;;;;;;;;;5071808;28;20181;-81
2023/01/19 06:01:34;;;;;;;3.57;2.63;;;;;;;;;;5077146;28;20178;-82
2023/01/19 06:03:59;;;;;;;10.03;6.43;;;;;;;;;;5071634;28;20185;-83
2023/01/19 06:06:24;;;;;;;8.33;5.73;;;;;;;;;;5070136;28;20224;-83
2023/01/19 06:08:49;;;;;;;13.07;7.20;;;;;;;;;;5066796;28;20194;-83
2023/01/19 06:11:15;;;;;;;15.83;8.70;;;;;;;;;;5064673;28;20178;-83
2023/01/19 06:13:40;;;;;;;28.53;17.00;;;;;;;;;;5061204;28;20170;-82
2023/01/19 06:16:05;;;;;;;24.87;16.73;;;;;;;;;;5061095;28;20196;-83
2023/01/19 06:18:30;;;;;;;13.17;8.47;;;;;;;;;;5073497;28;20200;-83
2023/01/19 06:20:59;;;;;;;7.43;5.07;;;;;;;;;;5061356;28;20194;-83
2023/01/19 06:23:24;;;;;;;5.33;3.83;;;;;;;;;;5064095;28;20219;-83
2023/01/19 06:25:50;;;;;;;4.30;3.27;;;;;;;;;;5066158;28;20201;-83
2023/01/19 06:28:15;;;;;;;6.63;3.60;;;;;;;;;;5063552;28;20208;-82
2023/01/19 06:30:41;;;;;;;5.27;4.00;;;;;;;;;;5060439;28;20169;-81
2023/01/19 06:33:06;;;;;;;7.77;4.10;;;;;;;;;;5078668;28;20174;-83
2023/01/19 06:35:31;;;;;;;7.83;4.63;;;;;;;;;;5070778;28;20189;-83
2023/01/19 06:37:56;;;;;;;5.90;3.40;;;;;;;;;;5067926;28;20225;-83
2023/01/19 06:40:21;;;;;;;6.27;4.47;;;;;;;;;;5065440;28;20185;-83
2023/01/19 06:42:47;;;;;;;4.73;3.40;;;;;;;;;;5078048;28;20177;-83
2023/01/19 06:45:12;;;;;;;4.57;2.90;;;;;;;;;;5075671;28;20173;-83
2023/01/19 06:47:38;;;;;;;4.47;3.07;;;;;;;;;;5066629;28;20178;-83
2023/01/19 06:50:03;;;;;;;4.63;3.13;;;;;;;;;;5077620;28;20290;-83
2023/01/19 06:52:28;;;;;;;4.20;2.87;;;;;;;;;;5071235;28;20174;-83
2023/01/19 06:54:53;;;;;;;3.97;2.77;;;;;;;;;;5083928;28;20170;-83
2023/01/19 06:57:19;;;;;;;3.83;2.90;;;;;;;;;;5070822;28;20162;-83
2023/01/19 06:59:44;;;;;;;4.73;3.03;;;;;;;;;;5069410;28;20279;-83
2023/01/19 07:02:17;;;;;;;3.77;3.03;;;;;;;;;;5083904;28;20182;-83
2023/01/19 07:04:42;;;;;;;13.30;8.13;;;;;;;;;;5068993;28;20188;-83
2023/01/19 07:07:07;;;;;;;73.10;31.60;;;;;;;;;;5068274;28;20177;-83
2023/01/19 07:09:32;;;;;;;83.03;33.77;;;;;;;;;;5071477;28;20269;-82
2023/01/19 07:11:58;;;;;;;16.83;12.27;;;;;;;;;;5071780;28;20194;-83
2023/01/19 07:14:24;;;;;;;3.83;3.50;;;;;;;;;;5069167;28;20178;-83
2023/01/19 07:16:49;;;;;;;4.40;3.60;;;;;;;;;;5067053;28;20174;-83
2023/01/19 07:19:14;;;;;;;6.10;5.40;;;;;;;;;;5067278;28;20323;-83
2023/01/19 07:21:40;;;;;;;9.33;5.43;;;;;;;;;;5064961;28;20181;-83
2023/01/19 07:24:05;;;;;;;5.53;4.97;;;;;;;;;;5072193;28;20181;-83
2023/01/19 07:26:30;;;;;;;4.93;4.20;;;;;;;;;;5065331;28;20166;-83
2023/01/19 07:28:55;;;;;;;4.70;3.93;;;;;;;;;;5070561;28;20197;-83
2023/01/19 07:31:21;;;;;;;5.07;3.90;;;;;;;;;;5072554;28;20185;-83
2023/01/19 07:33:46;;;;;;;5.63;3.77;;;;;;;;;;5072265;28;20184;-83
2023/01/19 07:36:12;;;;;;;5.53;3.60;;;;;;;;;;5071004;28;20218;-83
2023/01/19 07:38:37;;;;;;;5.03;3.87;;;;;;;;;;5071296;28;20282;-83
2023/01/19 07:41:06;;;;;;;9.83;3.70;;;;;;;;;;5077239;28;20185;-83
2023/01/19 07:43:32;;;;;;;5.43;4.17;;;;;;;;;;5069225;28;20212;-83
2023/01/19 07:45:58;;;;;;;5.67;3.63;;;;;;;;;;5069393;28;20185;-83
2023/01/19 07:48:23;;;;;;;4.70;3.23;;;;;;;;;;5065788;28;20208;-83
2023/01/19 07:50:49;;;;;;;4.23;3.57;;;;;;;;;;5087028;28;20162;-83
2023/01/19 07:53:14;;;;;;;5.50;4.10;;;;;;;;;;5061738;28;20323;-83
2023/01/19 07:55:39;;;;;;;5.83;3.93;;;;;;;;;;5081621;28;20168;-83
2023/01/19 07:58:06;;;;;;;5.57;4.47;;;;;;;;;;5098491;28;20177;-83
2023/01/19 08:00:31;;;;;;;6.97;4.33;;;;;;;;;;5064600;28;20191;-83
2023/01/19 08:02:58;;;;;;;7.17;5.00;;;;;;;;;;5075192;28;20185;-83
2023/01/19 08:05:24;;;;;;;8.17;6.07;;;;;;;;;;5076477;28;20272;-83
2023/01/19 08:07:49;;;;;;;8.37;6.00;;;;;;;;;;5078191;28;20209;-83
2023/01/19 08:10:16;;;;;;;3.87;3.47;;;;;;;;;;5069743;28;20203;-83
2023/01/19 08:12:42;;;;;;;10.70;5.97;;;;;;;;;;5076869;28;20177;-83
2023/01/19 08:15:10;;;;;;;10.57;6.57;;;;;;;;;;5068129;28;20263;-83
2023/01/19 08:17:35;;;;;;;24.37;14.90;;;;;;;;;;5073527;28;20269;-83
2023/01/19 08:20:01;;;;;;;20.57;12.80;;;;;;;;;;5070503;28;20285;-83
2023/01/19 08:22:26;;;;;;;11.07;7.63;;;;;;;;;;5073109;28;20204;-83
2023/01/19 08:24:51;;;;;;;7.90;6.00;;;;;;;;;;5070685;28;20174;-83
2023/01/19 08:27:17;;;;;;;8.60;7.53;;;;;;;;;;5066314;28;20188;-83
2023/01/19 08:29:42;;;;;;;12.23;8.70;;;;;;;;;;5070931;28;20240;-83
2023/01/19 08:32:07;;;;;;;10.20;8.93;;;;;;;;;;5069414;28;20600;-83
2023/01/19 08:34:32;;;;;;;7.97;6.63;;;;;;;;;;5077348;28;20169;-83
2023/01/19 08:36:58;;;;;;;11.33;7.97;;;;;;;;;;5068626;28;20223;-83
2023/01/19 08:39:23;;;;;;;17.00;11.70;;;;;;;;;;5073665;28;20555;-83
2023/01/19 08:41:49;;;;;;;13.37;9.10;;;;;;;;;;5075524;28;20169;-83
2023/01/19 08:44:14;;;;;;;14.17;9.60;;;;;;;;;;5084760;28;20213;-82
2023/01/19 08:46:40;;;;;;;17.33;11.40;;;;;;;;;;5086996;28;20173;-83
2023/01/19 08:49:05;;;;;;;16.53;10.27;;;;;;;;;;5075437;28;20252;-83
2023/01/19 08:51:30;;;;;;;10.27;7.53;;;;;;;;;;5078968;28;20180;-83
2023/01/19 08:53:55;;;;;;;16.70;10.53;;;;;;;;;;5083268;28;20174;-83
2023/01/19 08:56:21;;;;;;;19.33;12.50;;;;;;;;;;5073697;28;20187;-83
2023/01/19 08:58:46;;;;;;;13.70;7.93;;;;;;;;;;5066828;28;20253;-83
2023/01/19 09:01:19;;;;;;;10.27;7.00;;;;;;;;;;5071001;28;20184;-83
2023/01/19 09:03:45;;;;;;;10.33;7.30;;;;;;;;;;5073427;28;20219;-83
2023/01/19 09:06:11;;;;;;;6.57;4.73;;;;;;;;;;5064501;28;20186;-83
2023/01/19 09:08:37;;;;;;;6.07;4.97;;;;;;;;;;5088205;28;20231;-83
2023/01/19 09:11:04;;;;;;;5.13;4.07;;;;;;;;;;5066128;28;20174;-83
2023/01/19 09:13:29;;;;;;;5.70;4.13;;;;;;;;;;5069863;28;20181;-83
2023/01/19 09:15:54;;;;;;;8.77;5.57;;;;;;;;;;5064148;28;20174;-83
2023/01/19 09:18:20;;;;;;;5.17;4.33;;;;;;;;;;5071266;28;20185;-83
2023/01/19 09:20:47;;;;;;;8.67;5.40;;;;;;;;;;5067488;28;20174;-83
2023/01/19 09:23:13;;;;;;;10.63;6.87;;;;;;;;;;5075858;28;20173;-83
2023/01/19 09:25:39;;;;;;;6.23;5.13;;;;;;;;;;5066059;28;20176;-83
2023/01/19 09:28:06;;;;;;;12.03;7.17;;;;;;;;;;5068226;28;20176;-83
2023/01/19 09:30:32;;;;;;;8.03;6.23;;;;;;;;;;5076589;28;20228;-83
2023/01/19 09:33:01;;;;;;;11.80;6.67;;;;;;;;;;5071515;28;20212;-83
2023/01/19 09:35:26;;;;;;;11.07;7.17;;;;;;;;;;5073569;28;20201;-83
2023/01/19 09:37:51;;;;;;;8.63;7.07;;;;;;;;;;5093490;28;20177;-83
2023/01/19 09:40:17;;;;;;;10.57;7.27;;;;;;;;;;5066057;28;20208;-83
2023/01/19 09:42:44;;;;;;;10.37;6.67;;;;;;;;;;5075007;28;20176;-83
2023/01/19 09:45:15;;;;;;;13.47;7.43;;;;;;;;;;5075626;28;20173;-83
2023/01/19 09:47:41;;;;;;;11.40;7.10;;;;;;;;;;5068048;28;20188;-82
2023/01/19 09:50:14;;;;;;;10.67;6.43;;;;;;;;;;5071854;28;20292;-83
2023/01/19 09:52:42;;;;;;;7.97;4.73;;;;;;;;;;5067061;28;20169;-83
2023/01/19 09:55:18;;;;;;;7.27;5.53;;;;;;;;;;5072490;28;20184;-83
2023/01/19 09:57:44;;;;;;;11.13;6.27;;;;;;;;;;5068894;28;20178;-83
2023/01/19 10:00:14;;;;;;;12.77;8.90;;;;;;;;;;5075214;28;20173;-83
2023/01/19 10:02:42;;;;;;;11.03;7.53;;;;;;;;;;5068867;28;20178;-83
2023/01/19 10:05:24;;;;;;;10.40;7.40;;;;;;;;;;5064142;28;20196;-83
2023/01/19 10:08:11;;;;;;;8.50;6.60;;;;;;;;;;5087887;28;20205;-83
2023/01/19 10:10:39;;;;;;;10.50;6.50;;;;;;;;;;5065389;28;20182;-83
2023/01/19 10:13:10;;;;;;;10.17;6.80;;;;;;;;;;5077869;28;20208;-83
2023/01/19 10:15:51;;;;;;;10.80;8.70;;;;;;;;;;5074594;28;20202;-83
2023/01/19 10:18:16;;;;;;;11.93;7.80;;;;;;;;;;5060986;28;20266;-83
2023/01/19 10:20:48;;;;;;;9.53;7.43;;;;;;;;;;5070022;28;20204;-83
2023/01/19 10:23:20;;;;;;;8.43;5.67;;;;;;;;;;5072205;28;20184;-83
2023/01/19 10:25:45;;;;;;;10.20;6.80;;;;;;;;;;5066817;28;20205;-82
2023/01/19 10:28:12;;;;;;;9.93;7.17;;;;;;;;;;5069055;28;20200;-83
2023/01/19 10:30:39;;;;;;;5.40;4.47;;;;;;;;;;5076943;28;20308;-83
2023/01/19 10:33:04;;;;;;;5.07;4.17;;;;;;;;;;5082262;28;20181;-83
2023/01/19 10:35:30;;;;;;;6.97;4.47;;;;;;;;;;5069854;28;20215;-82
2023/01/19 10:37:57;;;;;;;8.40;6.47;;;;;;;;;;5069289;28;20225;-82
2023/01/19 10:40:25;;;;;;;11.23;6.97;;;;;;;;;;5069168;28;20214;-82
2023/01/19 10:42:51;;;;;;;6.90;4.37;;;;;;;;;;5067131;28;20178;-82
2023/01/19 10:45:16;;;;;;;11.90;8.20;;;;;;;;;;5065762;28;20181;-82
2023/01/19 10:47:42;;;;;;;18.77;10.60;;;;;;;;;;5064811;28;20182;-82
2023/01/19 10:50:17;;;;;;;11.67;6.87;;;;;;;;;;5069977;28;20201;-82
2023/01/19 10:52:48;;;;;;;12.87;6.63;;;;;;;;;;5075379;28;20200;-82
2023/01/19 10:55:22;;;;;;;9.40;5.13;;;;;;;;;;5069706;28;20239;-82
2023/01/19 10:57:50;;;;;;;6.73;5.73;;;;;;;;;;5071546;28;20287;-82
2023/01/19 11:00:35;;;;;;;8.00;4.60;;;;;;;;;;5071877;28;20199;-82
2023/01/19 11:03:00;;;;;;;7.00;4.80;;;;;;;;;;5078399;28;20178;-82
2023/01/19 11:05:27;;;;;;;13.33;6.63;;;;;;;;;;5077288;28;20239;-82
2023/01/19 11:07:52;;;;;;;7.27;4.63;;;;;;;;;;5076050;28;20187;-82
2023/01/19 11:10:21;;;;;;;5.23;4.20;;;;;;;;;;5075108;28;20217;-82
2023/01/19 11:12:46;;;;;;;5.33;2.77;;;;;;;;;;5067671;28;20179;-82
2023/01/19 11:15:13;;;;;;;4.50;3.80;;;;;;;;;;5060804;28;20200;-82
2023/01/19 11:17:41;;;;;;;4.43;3.30;;;;;;;;;;5077399;28;20170;-81
2023/01/19 11:20:17;;;;;;;4.23;3.67;;;;;;;;;;5068074;28;20170;-82
2023/01/19 11:22:42;;;;;;;4.57;3.30;;;;;;;;;;5077148;28;20177;-82
2023/01/19 11:25:19;;;;;;;6.97;4.53;;;;;;;;;;5079208;28;20185;-82
2023/01/19 11:27:47;;;;;;;10.77;6.70;;;;;;;;;;5078687;28;20189;-82
2023/01/19 11:30:21;;;;;;;9.13;6.03;;;;;;;;;;5079244;28;20198;-82
2023/01/19 11:32:48;;;;;;;5.57;4.20;;;;;;;;;;5070360;28;20170;-81
2023/01/19 11:35:30;;;;;;;9.83;7.30;;;;;;;;;;5068493;28;20209;-81
2023/01/19 11:38:11;;;;;;;10.77;6.03;;;;;;;;;;5062854;28;20232;-82
2023/01/19 11:40:37;;;;;;;4.93;4.30;;;;;;;;;;5074290;28;20165;-82
2023/01/19 11:43:02;;;;;;;11.13;7.60;;;;;;;;;;5066775;28;20178;-82
2023/01/19 11:45:27;;;;;;;7.20;5.10;;;;;;;;;;5069262;28;20257;-81
2023/01/19 11:47:53;;;;;;;4.13;3.53;;;;;;;;;;5086296;28;20180;-82
2023/01/19 11:50:33;;;;;;;5.50;5.00;;;;;;;;;;5058273;28;20240;-81
2023/01/19 11:53:19;;;;;;;5.37;4.10;;;;;;;;;;5080541;28;20250;-82
2023/01/19 11:55:44;;;;;;;6.60;5.10;;;;;;;;;;5065796;28;20235;-82
2023/01/19 11:58:17;;;;;;;11.23;6.30;;;;;;;;;;5070845;28;20178;-82
2023/01/19 12:00:48;;;;;;;4.90;4.10;;;;;;;;;;5069618;28;20182;-82
2023/01/19 12:03:17;;;;;;;3.67;3.30;;;;;;;;;;5086300;28;20192;-81
2023/01/19 12:05:45;;;;;;;5.80;4.77;;;;;;;;;;5067032;28;20212;-82
2023/01/19 12:08:17;;;;;;;3.63;3.33;;;;;;;;;;5075742;28;20166;-82
2023/01/19 12:10:43;;;;;;;3.90;3.50;;;;;;;;;;5069206;28;20173;-82
2023/01/19 12:13:29;;;;;;;4.37;3.60;;;;;;;;;;5063988;28;20248;-82
2023/01/19 12:15:57;;;;;;;3.33;2.80;;;;;;;;;;5066889;28;20180;-81
2023/01/19 12:18:24;;;;;;;3.90;2.50;;;;;;;;;;5074925;28;20178;-82
2023/01/19 12:20:50;;;;;;;5.40;4.67;;;;;;;;;;5072937;28;20528;-81
2023/01/19 12:23:21;;;;;;;4.30;3.90;;;;;;;;;;5063815;28;20171;-82
2023/01/19 12:25:55;;;;;;;3.60;3.20;;;;;;;;;;5060644;28;20178;-81
2023/01/19 12:28:25;;;;;;;3.00;2.33;;;;;;;;;;5066994;28;20650;-82
2023/01/19 12:30:51;;;;;;;4.03;3.53;;;;;;;;;;5067156;28;20207;-81
2023/01/19 12:33:25;;;;;;;6.60;3.70;;;;;;;;;;5088485;28;20173;-81
2023/01/19 12:35:56;;;;;;;5.63;3.17;;;;;;;;;;5066640;28;20196;-81
2023/01/19 12:38:34;;;;;;;4.90;4.40;;;;;;;;;;5069786;28;20229;-81
2023/01/19 12:41:14;;;;;;;5.00;4.57;;;;;;;;;;5073723;28;20172;-81
2023/01/19 12:43:39;;;;;;;3.83;2.97;;;;;;;;;;5059259;28;20262;-81
2023/01/19 12:46:17;;;;;;;3.87;3.13;;;;;;;;;;5078564;28;20283;-81
2023/01/19 12:48:43;;;;;;;3.83;3.37;;;;;;;;;;5065044;28;20208;-81
2023/01/19 12:51:08;;;;;;;4.70;3.53;;;;;;;;;;5073225;28;20182;-81
2023/01/19 12:53:34;;;;;;;4.20;3.80;;;;;;;;;;5086690;28;20161;-81
2023/01/19 12:56:04;;;;;;;3.13;2.57;;;;;;;;;;5070333;28;20185;-81
2023/01/19 12:58:30;;;;;;;6.93;5.37;;;;;;;;;;5068419;28;20178;-82
2023/01/19 13:01:12;;;;;;;5.20;4.07;;;;;;;;;;5063790;28;20185;-81
2023/01/19 13:03:42;;;;;;;6.90;5.47;;;;;;;;;;5085067;28;20175;-82
2023/01/19 13:06:08;;;;;;;6.50;4.20;;;;;;;;;;5069292;28;20183;-81
2023/01/19 13:08:51;;;;;;;5.00;4.43;;;;;;;;;;5074477;28;20206;-81
2023/01/19 13:11:18;;;;;;;6.10;5.07;;;;;;;;;;5069158;28;20177;-81
2023/01/19 13:13:46;;;;;;;5.23;4.57;;;;;;;;;;5069706;28;20197;-81
2023/01/19 13:16:18;;;;;;;6.80;4.80;;;;;;;;;;5070553;28;20177;-81
2023/01/19 13:18:51;;;;;;;5.57;5.00;;;;;;;;;;5067776;28;20192;-81
2023/01/19 13:21:27;;;;;;;6.23;5.57;;;;;;;;;;5073916;28;20178;-81
2023/01/19 13:23:54;;;;;;;3.73;3.33;;;;;;;;;;5075434;28;20254;-81
2023/01/19 13:26:21;;;;;;;8.10;5.40;;;;;;;;;;5072676;28;20189;-81
2023/01/19 13:28:48;;;;;;;5.90;4.80;;;;;;;;;;5079550;28;20332;-82
2023/01/19 13:31:14;;;;;;;7.00;5.33;;;;;;;;;;5081179;28;20525;-81
2023/01/19 13:33:45;;;;;;;6.60;4.80;;;;;;;;;;5073677;28;20197;-81
2023/01/19 13:36:40;;;;;;;7.07;5.40;;;;;;;;;;5066172;28;20205;-81
2023/01/19 13:39:16;;;;;;;5.30;4.73;;;;;;;;;;5062665;28;20230;-82
2023/01/19 13:41:42;;;;;;;6.43;5.23;;;;;;;;;;5061158;28;20166;-81
2023/01/19 13:44:19;;;;;;;9.30;6.07;;;;;;;;;;5086697;28;20183;-81
2023/01/19 13:46:45;;;;;;;12.03;8.50;;;;;;;;;;5067196;28;20173;-81
2023/01/19 13:49:18;;;;;;;11.03;7.00;;;;;;;;;;5066476;28;20293;-85
2023/01/19 13:51:44;;;;;;;8.43;7.53;;;;;;;;;;5074839;28;20245;-86
2023/01/19 13:54:16;;;;;;;9.53;6.90;;;;;;;;;;5075144;28;20210;-86
2023/01/19 13:56:46;;;;;;;8.77;7.00;;;;;;;;;;5071381;28;20166;-86
2023/01/19 13:59:11;;;;;;;18.80;12.10;;;;;;;;;;5077314;28;20185;-86
2023/01/19 14:01:44;;;;;;;10.27;7.27;;;;;;;;;;5077645;28;20182;-86
2023/01/19 14:04:26;;;;;;;11.23;7.70;;;;;;;;;;5069787;28;20193;-86
2023/01/19 14:06:54;;;;;;;15.93;11.40;;;;;;;;;;5070066;28;20207;-87
2023/01/19 14:09:20;;;;;;;16.77;8.93;;;;;;;;;;5071117;28;20192;-87
2023/01/19 14:11:46;;;;;;;12.60;9.07;;;;;;;;;;5065346;28;20244;-87
2023/01/19 14:14:21;;;;;;;9.87;6.43;;;;;;;;;;5068660;28;20205;-87
2023/01/19 14:16:47;;;;;;;8.03;6.67;;;;;;;;;;5079113;28;20167;-87
2023/01/19 14:19:12;;;;;;;9.07;7.87;;;;;;;;;;5068593;28;20178;-87
2023/01/19 14:21:38;;;;;;;9.53;7.57;;;;;;;;;;5078244;28;20170;-87
2023/01/19 14:24:08;;;;;;;8.30;6.80;;;;;;;;;;5061204;28;20170;-87
2023/01/19 14:26:36;;;;;;;10.83;8.93;;;;;;;;;;5068858;28;20179;-87
2023/01/19 14:29:20;;;;;;;11.60;7.97;;;;;;;;;;5068706;28;20203;-87
2023/01/19 14:31:47;;;;;;;13.70;9.37;;;;;;;;;;5068532;28;20468;-87
2023/01/19 14:34:31;;;;;;;9.97;7.93;;;;;;;;;;5083595;28;20177;-87
2023/01/19 14:36:57;;;;;;;9.73;7.73;;;;;;;;;;5067429;28;20253;-87
2023/01/19 14:39:24;;;;;;;8.77;7.97;;;;;;;;;;5065436;28;20241;-87
2023/01/19 14:41:51;;;;;;;8.80;7.53;;;;;;;;;;5077776;28;20211;-87
2023/01/19 14:44:37;;;;;;;8.50;6.30;;;;;;;;;;5076328;28;20175;-87
2023/01/19 14:47:02;;;;;;;13.17;9.47;;;;;;;;;;5084883;28;20236;-87
2023/01/19 14:49:30;;;;;;;10.83;9.00;;;;;;;;;;5068035;28;20206;-87
2023/01/19 14:51:55;;;;;;;9.20;7.80;;;;;;;;;;5069333;28;20190;-87